sensor_id;sensor_type;location;lat;lon;timestamp;P1;durP1;ratioP1;P2;durP2;ratioP2
26594;SDS011;14238;49.496;8.154;2024-02-26T00:00:04;1.60;;;1.50;;
26594;SDS011;14238;49.496;8.154;2024-02-26T00:02:33;1.53;;;1.43;;
26594;SDS011;14238;49.496;8.154;2024-02-26T00:05:03;1.63;;;1.53;;
26594;SDS011;14238;49.496;8.154;2024-02-26T00:07:29;2.07;;;1.87;;
26594;SDS011;14238;49.496;8.154;2024-02-26T00:09:54;1.40;;;1.40;;
26594;SDS011;14238;49.496;8.154;2024-02-26T00:12:20;1.20;;;1.20;;
26594;SDS011;14238;49.496;8.154;2024-02-26T00:14:46;1.67;;;1.57;;
26594;SDS011;14238;49.496;8.154;2024-02-26T00:17:14;1.57;;;1.47;;
26594;SDS011;14238;49.496;8.154;2024-02-26T00:19:41;1.50;;;1.40;;
26594;SDS011;14238;49.496;8.154;2024-02-26T00:22:07;1.43;;;1.33;;
26594;SDS011;14238;49.496;8.154;2024-02-26T00:24:33;2.80;;;1.60;;
26594;SDS011;14238;49.496;8.154;2024-02-26T00:26:59;3.33;;;1.50;;
26594;SDS011;14238;49.496;8.154;2024-02-26T00:29:25;1.47;;;1.37;;
26594;SDS011;14238;49.496;8.154;2024-02-26T00:31:51;1.70;;;1.60;;
26594;SDS011;14238;49.496;8.154;2024-02-26T00:34:17;1.77;;;1.60;;
26594;SDS011;14238;49.496;8.154;2024-02-26T00:36:43;1.57;;;1.50;;
26594;SDS011;14238;49.496;8.154;2024-02-26T00:39:09;1.33;;;1.23;;
26594;SDS011;14238;49.496;8.154;2024-02-26T00:41:38;1.37;;;1.30;;
26594;SDS011;14238;49.496;8.154;2024-02-26T00:44:04;1.10;;;1.10;;
26594;SDS011;14238;49.496;8.154;2024-02-26T00:46:29;1.90;;;1.80;;
26594;SDS011;14238;49.496;8.154;2024-02-26T00:48:55;2.00;;;1.83;;
26594;SDS011;14238;49.496;8.154;2024-02-26T00:51:21;1.57;;;1.47;;
26594;SDS011;14238;49.496;8.154;2024-02-26T00:53:47;1.80;;;1.70;;
26594;SDS011;14238;49.496;8.154;2024-02-26T00:56:13;1.67;;;1.57;;
26594;SDS011;14238;49.496;8.154;2024-02-26T00:58:39;1.90;;;1.60;;
26594;SDS011;14238;49.496;8.154;2024-02-26T01:01:05;2.10;;;1.87;;
26594;SDS011;14238;49.496;8.154;2024-02-26T01:03:31;2.13;;;2.03;;
26594;SDS011;14238;49.496;8.154;2024-02-26T01:05:57;1.83;;;1.60;;
26594;SDS011;14238;49.496;8.154;2024-02-26T01:08:23;1.80;;;1.70;;
26594;SDS011;14238;49.496;8.154;2024-02-26T01:10:49;1.73;;;1.67;;
26594;SDS011;14238;49.496;8.154;2024-02-26T01:13:15;1.90;;;1.80;;
26594;SDS011;14238;49.496;8.154;2024-02-26T01:15:41;2.10;;;2.00;;
26594;SDS011;14238;49.496;8.154;2024-02-26T01:18:08;1.70;;;1.60;;
26594;SDS011;14238;49.496;8.154;2024-02-26T01:20:34;1.60;;;1.50;;
26594;SDS011;14238;49.496;8.154;2024-02-26T01:23:01;2.00;;;1.90;;
26594;SDS011;14238;49.496;8.154;2024-02-26T01:25:27;1.57;;;1.53;;
26594;SDS011;14238;49.496;8.154;2024-02-26T01:27:53;1.90;;;1.80;;
26594;SDS011;14238;49.496;8.154;2024-02-26T01:30:19;2.43;;;2.23;;
26594;SDS011;14238;49.496;8.154;2024-02-26T01:32:45;2.27;;;2.17;;
26594;SDS011;14238;49.496;8.154;2024-02-26T01:35:11;2.30;;;2.20;;
26594;SDS011;14238;49.496;8.154;2024-02-26T01:37:37;2.23;;;2.10;;
26594;SDS011;14238;49.496;8.154;2024-02-26T01:40:03;2.67;;;2.47;;
26594;SDS011;14238;49.496;8.154;2024-02-26T01:42:30;3.40;;;2.00;;
26594;SDS011;14238;49.496;8.154;2024-02-26T01:44:57;1.97;;;1.87;;
26594;SDS011;14238;49.496;8.154;2024-02-26T01:47:23;2.90;;;2.53;;
26594;SDS011;14238;49.496;8.154;2024-02-26T01:49:49;2.60;;;2.40;;
26594;SDS011;14238;49.496;8.154;2024-02-26T01:52:15;2.30;;;2.10;;
26594;SDS011;14238;49.496;8.154;2024-02-26T01:54:42;3.20;;;3.00;;
26594;SDS011;14238;49.496;8.154;2024-02-26T01:57:11;2.00;;;1.83;;
26594;SDS011;14238;49.496;8.154;2024-02-26T01:59:38;2.70;;;2.50;;
26594;SDS011;14238;49.496;8.154;2024-02-26T02:02:06;2.73;;;2.53;;
26594;SDS011;14238;49.496;8.154;2024-02-26T02:04:34;2.43;;;2.33;;
26594;SDS011;14238;49.496;8.154;2024-02-26T02:07:00;2.70;;;2.50;;
26594;SDS011;14238;49.496;8.154;2024-02-26T02:09:29;2.17;;;2.07;;
26594;SDS011;14238;49.496;8.154;2024-02-26T02:11:56;2.17;;;1.97;;
26594;SDS011;14238;49.496;8.154;2024-02-26T02:14:23;3.43;;;3.13;;
26594;SDS011;14238;49.496;8.154;2024-02-26T02:16:49;2.43;;;2.23;;
26594;SDS011;14238;49.496;8.154;2024-02-26T02:19:15;2.00;;;1.90;;
26594;SDS011;14238;49.496;8.154;2024-02-26T02:21:41;1.90;;;1.80;;
26594;SDS011;14238;49.496;8.154;2024-02-26T02:24:07;1.83;;;1.73;;
26594;SDS011;14238;49.496;8.154;2024-02-26T02:26:33;1.70;;;1.60;;
26594;SDS011;14238;49.496;8.154;2024-02-26T02:28:59;1.60;;;1.60;;
26594;SDS011;14238;49.496;8.154;2024-02-26T02:31:25;3.33;;;2.60;;
26594;SDS011;14238;49.496;8.154;2024-02-26T02:33:52;1.90;;;1.80;;
26594;SDS011;14238;49.496;8.154;2024-02-26T02:36:18;1.90;;;1.80;;
26594;SDS011;14238;49.496;8.154;2024-02-26T02:38:50;1.83;;;1.73;;
26594;SDS011;14238;49.496;8.154;2024-02-26T02:41:16;1.73;;;1.50;;
26594;SDS011;14238;49.496;8.154;2024-02-26T02:43:42;2.03;;;1.87;;
26594;SDS011;14238;49.496;8.154;2024-02-26T02:46:08;2.40;;;2.20;;
26594;SDS011;14238;49.496;8.154;2024-02-26T02:48:36;1.87;;;1.77;;
26594;SDS011;14238;49.496;8.154;2024-02-26T02:51:02;1.60;;;1.60;;
26594;SDS011;14238;49.496;8.154;2024-02-26T02:53:28;4.37;;;2.20;;
26594;SDS011;14238;49.496;8.154;2024-02-26T02:55:54;2.00;;;1.90;;
26594;SDS011;14238;49.496;8.154;2024-02-26T02:58:20;2.30;;;2.17;;
26594;SDS011;14238;49.496;8.154;2024-02-26T03:00:46;1.70;;;1.60;;
26594;SDS011;14238;49.496;8.154;2024-02-26T03:03:12;1.90;;;1.80;;
26594;SDS011;14238;49.496;8.154;2024-02-26T03:05:38;2.40;;;2.20;;
26594;SDS011;14238;49.496;8.154;2024-02-26T03:08:04;2.03;;;1.93;;
26594;SDS011;14238;49.496;8.154;2024-02-26T03:10:30;2.80;;;1.93;;
26594;SDS011;14238;49.496;8.154;2024-02-26T03:12:56;1.50;;;1.40;;
26594;SDS011;14238;49.496;8.154;2024-02-26T03:15:22;1.60;;;1.50;;
26594;SDS011;14238;49.496;8.154;2024-02-26T03:17:48;1.40;;;1.37;;
26594;SDS011;14238;49.496;8.154;2024-02-26T03:20:14;1.60;;;1.50;;
26594;SDS011;14238;49.496;8.154;2024-02-26T03:22:40;1.33;;;1.30;;
26594;SDS011;14238;49.496;8.154;2024-02-26T03:25:06;1.70;;;1.60;;
26594;SDS011;14238;49.496;8.154;2024-02-26T03:27:32;1.10;;;1.10;;
26594;SDS011;14238;49.496;8.154;2024-02-26T03:29:58;1.47;;;1.37;;
26594;SDS011;14238;49.496;8.154;2024-02-26T03:32:24;4.30;;;1.40;;
26594;SDS011;14238;49.496;8.154;2024-02-26T03:34:50;1.30;;;1.20;;
26594;SDS011;14238;49.496;8.154;2024-02-26T03:37:19;1.57;;;1.47;;
26594;SDS011;14238;49.496;8.154;2024-02-26T03:39:45;1.20;;;1.20;;
26594;SDS011;14238;49.496;8.154;2024-02-26T03:42:11;1.80;;;1.70;;
26594;SDS011;14238;49.496;8.154;2024-02-26T03:44:37;1.20;;;1.20;;
26594;SDS011;14238;49.496;8.154;2024-02-26T03:47:03;1.00;;;1.00;;
26594;SDS011;14238;49.496;8.154;2024-02-26T03:49:29;1.20;;;1.20;;
26594;SDS011;14238;49.496;8.154;2024-02-26T03:51:55;1.20;;;1.20;;
26594;SDS011;14238;49.496;8.154;2024-02-26T03:54:21;1.60;;;1.03;;
26594;SDS011;14238;49.496;8.154;2024-02-26T03:56:47;1.20;;;1.20;;
26594;SDS011;14238;49.496;8.154;2024-02-26T03:59:13;1.43;;;1.33;;
26594;SDS011;14238;49.496;8.154;2024-02-26T04:01:44;1.40;;;1.30;;
26594;SDS011;14238;49.496;8.154;2024-02-26T04:04:10;1.73;;;1.63;;
26594;SDS011;14238;49.496;8.154;2024-02-26T04:06:36;1.23;;;1.23;;
26594;SDS011;14238;49.496;8.154;2024-02-26T04:09:02;1.67;;;1.57;;
26594;SDS011;14238;49.496;8.154;2024-02-26T04:11:28;1.03;;;1.03;;
26594;SDS011;14238;49.496;8.154;2024-02-26T04:13:54;1.27;;;1.27;;
26594;SDS011;14238;49.496;8.154;2024-02-26T04:16:21;2.23;;;1.40;;
26594;SDS011;14238;49.496;8.154;2024-02-26T04:18:47;1.10;;;1.10;;
26594;SDS011;14238;49.496;8.154;2024-02-26T04:21:14;1.47;;;1.30;;
26594;SDS011;14238;49.496;8.154;2024-02-26T04:23:40;1.10;;;1.10;;
26594;SDS011;14238;49.496;8.154;2024-02-26T04:26:06;1.33;;;1.27;;
26594;SDS011;14238;49.496;8.154;2024-02-26T04:28:32;1.60;;;1.50;;
26594;SDS011;14238;49.496;8.154;2024-02-26T04:30:58;1.10;;;1.10;;
26594;SDS011;14238;49.496;8.154;2024-02-26T04:33:23;1.23;;;1.13;;
26594;SDS011;14238;49.496;8.154;2024-02-26T04:35:49;1.10;;;1.10;;
26594;SDS011;14238;49.496;8.154;2024-02-26T04:38:15;1.03;;;1.03;;
26594;SDS011;14238;49.496;8.154;2024-02-26T04:40:41;0.97;;;0.97;;
26594;SDS011;14238;49.496;8.154;2024-02-26T04:43:07;1.70;;;1.17;;
26594;SDS011;14238;49.496;8.154;2024-02-26T04:45:33;3.13;;;1.10;;
26594;SDS011;14238;49.496;8.154;2024-02-26T04:47:59;0.90;;;0.90;;
26594;SDS011;14238;49.496;8.154;2024-02-26T04:50:25;1.13;;;1.03;;
26594;SDS011;14238;49.496;8.154;2024-02-26T04:52:51;1.30;;;1.30;;
26594;SDS011;14238;49.496;8.154;2024-02-26T04:55:17;1.20;;;1.20;;
26594;SDS011;14238;49.496;8.154;2024-02-26T04:57:43;1.63;;;1.53;;
26594;SDS011;14238;49.496;8.154;2024-02-26T05:00:09;1.10;;;1.10;;
26594;SDS011;14238;49.496;8.154;2024-02-26T05:02:35;0.90;;;0.90;;
26594;SDS011;14238;49.496;8.154;2024-02-26T05:05:04;1.10;;;1.10;;
26594;SDS011;14238;49.496;8.154;2024-02-26T05:07:30;1.00;;;1.00;;
26594;SDS011;14238;49.496;8.154;2024-02-26T05:09:56;1.10;;;1.10;;
26594;SDS011;14238;49.496;8.154;2024-02-26T05:12:22;1.13;;;1.13;;
26594;SDS011;14238;49.496;8.154;2024-02-26T05:14:48;2.17;;;1.00;;
26594;SDS011;14238;49.496;8.154;2024-02-26T05:17:14;0.90;;;0.90;;
26594;SDS011;14238;49.496;8.154;2024-02-26T05:19:40;1.00;;;0.83;;
26594;SDS011;14238;49.496;8.154;2024-02-26T05:22:06;1.47;;;1.00;;
26594;SDS011;14238;49.496;8.154;2024-02-26T05:24:32;1.30;;;1.27;;
26594;SDS011;14238;49.496;8.154;2024-02-26T05:26:58;0.73;;;0.73;;
26594;SDS011;14238;49.496;8.154;2024-02-26T05:29:24;0.90;;;0.90;;
26594;SDS011;14238;49.496;8.154;2024-02-26T05:31:50;1.20;;;1.07;;
26594;SDS011;14238;49.496;8.154;2024-02-26T05:34:19;1.00;;;1.00;;
26594;SDS011;14238;49.496;8.154;2024-02-26T05:36:45;0.90;;;0.90;;
26594;SDS011;14238;49.496;8.154;2024-02-26T05:39:11;1.10;;;1.00;;
26594;SDS011;14238;49.496;8.154;2024-02-26T05:41:37;1.00;;;1.00;;
26594;SDS011;14238;49.496;8.154;2024-02-26T05:44:03;0.70;;;0.70;;
26594;SDS011;14238;49.496;8.154;2024-02-26T05:46:29;0.83;;;0.83;;
26594;SDS011;14238;49.496;8.154;2024-02-26T05:48:55;1.20;;;1.20;;
26594;SDS011;14238;49.496;8.154;2024-02-26T05:51:21;1.17;;;0.93;;
26594;SDS011;14238;49.496;8.154;2024-02-26T05:53:47;0.83;;;0.83;;
26594;SDS011;14238;49.496;8.154;2024-02-26T05:56:18;1.20;;;1.10;;
26594;SDS011;14238;49.496;8.154;2024-02-26T05:58:44;0.83;;;0.83;;
26594;SDS011;14238;49.496;8.154;2024-02-26T06:01:10;1.60;;;1.50;;
26594;SDS011;14238;49.496;8.154;2024-02-26T06:03:36;2.97;;;1.70;;
26594;SDS011;14238;49.496;8.154;2024-02-26T06:06:02;1.57;;;1.27;;
26594;SDS011;14238;49.496;8.154;2024-02-26T06:08:28;1.10;;;1.10;;
26594;SDS011;14238;49.496;8.154;2024-02-26T06:10:54;1.70;;;1.20;;
26594;SDS011;14238;49.496;8.154;2024-02-26T06:13:20;1.27;;;1.17;;
26594;SDS011;14238;49.496;8.154;2024-02-26T06:15:46;1.47;;;1.10;;
26594;SDS011;14238;49.496;8.154;2024-02-26T06:18:12;1.00;;;1.00;;
26594;SDS011;14238;49.496;8.154;2024-02-26T06:20:38;0.90;;;0.90;;
26594;SDS011;14238;49.496;8.154;2024-02-26T06:23:04;2.73;;;1.23;;
26594;SDS011;14238;49.496;8.154;2024-02-26T06:25:30;1.90;;;1.07;;
26594;SDS011;14238;49.496;8.154;2024-02-26T06:27:56;1.30;;;1.30;;
26594;SDS011;14238;49.496;8.154;2024-02-26T06:30:22;2.00;;;1.30;;
26594;SDS011;14238;49.496;8.154;2024-02-26T06:32:48;1.73;;;1.30;;
26594;SDS011;14238;49.496;8.154;2024-02-26T06:35:13;1.20;;;1.10;;
26594;SDS011;14238;49.496;8.154;2024-02-26T06:37:39;1.43;;;1.33;;
26594;SDS011;14238;49.496;8.154;2024-02-26T06:40:06;1.40;;;1.40;;
26594;SDS011;14238;49.496;8.154;2024-02-26T06:42:32;1.37;;;1.33;;
26594;SDS011;14238;49.496;8.154;2024-02-26T06:44:58;1.83;;;1.73;;
26594;SDS011;14238;49.496;8.154;2024-02-26T06:47:24;1.30;;;1.30;;
26594;SDS011;14238;49.496;8.154;2024-02-26T06:49:50;1.60;;;1.50;;
26594;SDS011;14238;49.496;8.154;2024-02-26T06:52:16;1.80;;;1.70;;
26594;SDS011;14238;49.496;8.154;2024-02-26T06:54:42;2.43;;;2.23;;
26594;SDS011;14238;49.496;8.154;2024-02-26T06:57:09;2.27;;;2.17;;
26594;SDS011;14238;49.496;8.154;2024-02-26T06:59:36;1.50;;;1.40;;
26594;SDS011;14238;49.496;8.154;2024-02-26T07:02:02;1.60;;;1.50;;
26594;SDS011;14238;49.496;8.154;2024-02-26T07:04:27;1.37;;;1.30;;
26594;SDS011;14238;49.496;8.154;2024-02-26T07:06:53;1.90;;;1.80;;
26594;SDS011;14238;49.496;8.154;2024-02-26T07:09:19;1.93;;;1.83;;
26594;SDS011;14238;49.496;8.154;2024-02-26T07:11:45;1.50;;;1.50;;
26594;SDS011;14238;49.496;8.154;2024-02-26T07:14:12;1.60;;;1.50;;
26594;SDS011;14238;49.496;8.154;2024-02-26T07:16:38;2.00;;;1.90;;
26594;SDS011;14238;49.496;8.154;2024-02-26T07:19:04;2.90;;;2.70;;
26594;SDS011;14238;49.496;8.154;2024-02-26T07:21:29;3.17;;;2.90;;
26594;SDS011;14238;49.496;8.154;2024-02-26T07:23:56;3.50;;;3.20;;
26594;SDS011;14238;49.496;8.154;2024-02-26T07:26:22;2.60;;;2.20;;
26594;SDS011;14238;49.496;8.154;2024-02-26T07:28:50;2.27;;;2.00;;
26594;SDS011;14238;49.496;8.154;2024-02-26T07:31:19;2.03;;;1.93;;
26594;SDS011;14238;49.496;8.154;2024-02-26T07:33:45;3.50;;;3.30;;
26594;SDS011;14238;49.496;8.154;2024-02-26T07:36:11;3.53;;;3.33;;
26594;SDS011;14238;49.496;8.154;2024-02-26T07:38:37;3.30;;;3.00;;
26594;SDS011;14238;49.496;8.154;2024-02-26T07:41:03;2.90;;;2.70;;
26594;SDS011;14238;49.496;8.154;2024-02-26T07:43:29;2.77;;;2.47;;
26594;SDS011;14238;49.496;8.154;2024-02-26T07:45:55;3.60;;;2.83;;
26594;SDS011;14238;49.496;8.154;2024-02-26T07:48:21;2.40;;;2.30;;
26594;SDS011;14238;49.496;8.154;2024-02-26T07:50:47;2.20;;;2.10;;
26594;SDS011;14238;49.496;8.154;2024-02-26T07:53:13;2.77;;;2.57;;
26594;SDS011;14238;49.496;8.154;2024-02-26T07:55:39;2.43;;;2.23;;
26594;SDS011;14238;49.496;8.154;2024-02-26T07:58:05;2.90;;;2.60;;
26594;SDS011;14238;49.496;8.154;2024-02-26T08:00:31;3.07;;;2.87;;
26594;SDS011;14238;49.496;8.154;2024-02-26T08:02:57;3.40;;;3.20;;
26594;SDS011;14238;49.496;8.154;2024-02-26T08:05:23;4.50;;;3.07;;
26594;SDS011;14238;49.496;8.154;2024-02-26T08:07:50;2.60;;;2.50;;
26594;SDS011;14238;49.496;8.154;2024-02-26T08:10:16;2.57;;;2.47;;
26594;SDS011;14238;49.496;8.154;2024-02-26T08:12:42;2.83;;;2.73;;
26594;SDS011;14238;49.496;8.154;2024-02-26T08:15:08;2.13;;;2.03;;
26594;SDS011;14238;49.496;8.154;2024-02-26T08:17:35;2.57;;;2.37;;
26594;SDS011;14238;49.496;8.154;2024-02-26T08:20:01;2.80;;;2.70;;
26594;SDS011;14238;49.496;8.154;2024-02-26T08:22:27;2.73;;;2.63;;
26594;SDS011;14238;49.496;8.154;2024-02-26T08:24:53;2.47;;;2.37;;
26594;SDS011;14238;49.496;8.154;2024-02-26T08:27:19;2.90;;;2.70;;
26594;SDS011;14238;49.496;8.154;2024-02-26T08:29:45;2.83;;;2.63;;
26594;SDS011;14238;49.496;8.154;2024-02-26T08:32:11;3.23;;;2.30;;
26594;SDS011;14238;49.496;8.154;2024-02-26T08:34:37;3.20;;;3.00;;
26594;SDS011;14238;49.496;8.154;2024-02-26T08:37:03;3.23;;;3.03;;
26594;SDS011;14238;49.496;8.154;2024-02-26T08:39:29;2.70;;;2.50;;
26594;SDS011;14238;49.496;8.154;2024-02-26T08:41:55;2.70;;;2.50;;
26594;SDS011;14238;49.496;8.154;2024-02-26T08:44:21;2.80;;;2.67;;
26594;SDS011;14238;49.496;8.154;2024-02-26T08:46:47;3.40;;;3.20;;
26594;SDS011;14238;49.496;8.154;2024-02-26T08:49:13;2.67;;;2.47;;
26594;SDS011;14238;49.496;8.154;2024-02-26T08:51:41;2.50;;;2.40;;
26594;SDS011;14238;49.496;8.154;2024-02-26T08:54:08;2.17;;;2.07;;
26594;SDS011;14238;49.496;8.154;2024-02-26T08:56:34;2.50;;;2.40;;
26594;SDS011;14238;49.496;8.154;2024-02-26T08:59:00;2.87;;;2.60;;
26594;SDS011;14238;49.496;8.154;2024-02-26T09:01:28;3.00;;;2.80;;
26594;SDS011;14238;49.496;8.154;2024-02-26T09:03:54;2.77;;;2.57;;
26594;SDS011;14238;49.496;8.154;2024-02-26T09:06:21;2.90;;;2.70;;
26594;SDS011;14238;49.496;8.154;2024-02-26T09:08:47;3.07;;;2.87;;
26594;SDS011;14238;49.496;8.154;2024-02-26T09:11:13;3.27;;;3.00;;
26594;SDS011;14238;49.496;8.154;2024-02-26T09:13:39;3.23;;;2.80;;
26594;SDS011;14238;49.496;8.154;2024-02-26T09:16:05;3.47;;;3.27;;
26594;SDS011;14238;49.496;8.154;2024-02-26T09:18:31;3.50;;;3.30;;
26594;SDS011;14238;49.496;8.154;2024-02-26T09:20:57;3.90;;;3.63;;
26594;SDS011;14238;49.496;8.154;2024-02-26T09:23:23;3.93;;;3.63;;
26594;SDS011;14238;49.496;8.154;2024-02-26T09:25:49;2.57;;;2.47;;
26594;SDS011;14238;49.496;8.154;2024-02-26T09:28:15;3.30;;;3.10;;
26594;SDS011;14238;49.496;8.154;2024-02-26T09:30:42;3.00;;;2.80;;
26594;SDS011;14238;49.496;8.154;2024-02-26T09:33:08;3.03;;;2.60;;
26594;SDS011;14238;49.496;8.154;2024-02-26T09:35:34;3.40;;;3.20;;
26594;SDS011;14238;49.496;8.154;2024-02-26T09:38:00;3.10;;;2.90;;
26594;SDS011;14238;49.496;8.154;2024-02-26T09:40:26;2.53;;;2.33;;
26594;SDS011;14238;49.496;8.154;2024-02-26T09:42:53;3.00;;;2.90;;
26594;SDS011;14238;49.496;8.154;2024-02-26T09:45:21;3.20;;;3.00;;
26594;SDS011;14238;49.496;8.154;2024-02-26T09:47:48;3.80;;;3.30;;
26594;SDS011;14238;49.496;8.154;2024-02-26T09:50:16;3.70;;;3.50;;
26594;SDS011;14238;49.496;8.154;2024-02-26T09:52:43;5.50;;;3.40;;
26594;SDS011;14238;49.496;8.154;2024-02-26T09:55:09;3.27;;;3.07;;
26594;SDS011;14238;49.496;8.154;2024-02-26T09:57:38;3.67;;;3.37;;
26594;SDS011;14238;49.496;8.154;2024-02-26T10:00:08;3.30;;;3.00;;
26594;SDS011;14238;49.496;8.154;2024-02-26T10:02:36;4.00;;;3.70;;
26594;SDS011;14238;49.496;8.154;2024-02-26T10:05:04;3.70;;;3.40;;
26594;SDS011;14238;49.496;8.154;2024-02-26T10:07:30;3.50;;;3.30;;
26594;SDS011;14238;49.496;8.154;2024-02-26T10:09:56;3.40;;;3.20;;
26594;SDS011;14238;49.496;8.154;2024-02-26T10:12:22;3.93;;;3.63;;
26594;SDS011;14238;49.496;8.154;2024-02-26T10:14:50;4.23;;;3.83;;
26594;SDS011;14238;49.496;8.154;2024-02-26T10:17:17;4.07;;;3.70;;
26594;SDS011;14238;49.496;8.154;2024-02-26T10:19:44;3.57;;;3.27;;
26594;SDS011;14238;49.496;8.154;2024-02-26T10:22:10;3.53;;;3.33;;
26594;SDS011;14238;49.496;8.154;2024-02-26T10:24:36;3.57;;;3.33;;
26594;SDS011;14238;49.496;8.154;2024-02-26T10:27:02;3.33;;;3.13;;
26594;SDS011;14238;49.496;8.154;2024-02-26T10:29:28;3.73;;;3.43;;
26594;SDS011;14238;49.496;8.154;2024-02-26T10:31:54;3.83;;;3.53;;
26594;SDS011;14238;49.496;8.154;2024-02-26T10:34:21;4.80;;;3.97;;
26594;SDS011;14238;49.496;8.154;2024-02-26T10:36:48;4.03;;;3.83;;
26594;SDS011;14238;49.496;8.154;2024-02-26T10:39:14;3.80;;;3.50;;
26594;SDS011;14238;49.496;8.154;2024-02-26T10:41:41;3.73;;;3.43;;
26594;SDS011;14238;49.496;8.154;2024-02-26T10:44:10;3.70;;;3.40;;
26594;SDS011;14238;49.496;8.154;2024-02-26T10:46:37;3.60;;;3.30;;
26594;SDS011;14238;49.496;8.154;2024-02-26T10:49:04;3.73;;;3.53;;
26594;SDS011;14238;49.496;8.154;2024-02-26T10:51:31;4.00;;;3.53;;
26594;SDS011;14238;49.496;8.154;2024-02-26T10:53:59;2.97;;;2.77;;
26594;SDS011;14238;49.496;8.154;2024-02-26T10:56:27;3.23;;;3.03;;
26594;SDS011;14238;49.496;8.154;2024-02-26T10:58:53;3.40;;;2.97;;
26594;SDS011;14238;49.496;8.154;2024-02-26T11:01:19;3.53;;;3.33;;
26594;SDS011;14238;49.496;8.154;2024-02-26T11:03:46;3.50;;;3.27;;
26594;SDS011;14238;49.496;8.154;2024-02-26T11:06:13;2.83;;;2.60;;
26594;SDS011;14238;49.496;8.154;2024-02-26T11:08:39;3.17;;;2.97;;
26594;SDS011;14238;49.496;8.154;2024-02-26T11:11:06;3.67;;;3.43;;
26594;SDS011;14238;49.496;8.154;2024-02-26T11:13:32;4.00;;;2.90;;
26594;SDS011;14238;49.496;8.154;2024-02-26T11:15:59;2.67;;;2.57;;
26594;SDS011;14238;49.496;8.154;2024-02-26T11:18:26;3.30;;;3.10;;
26594;SDS011;14238;49.496;8.154;2024-02-26T11:20:52;4.60;;;3.33;;
26594;SDS011;14238;49.496;8.154;2024-02-26T11:23:22;4.07;;;3.70;;
26594;SDS011;14238;49.496;8.154;2024-02-26T11:25:49;3.70;;;3.50;;
26594;SDS011;14238;49.496;8.154;2024-02-26T11:28:17;4.27;;;3.67;;
26594;SDS011;14238;49.496;8.154;2024-02-26T11:30:44;3.43;;;3.20;;
26594;SDS011;14238;49.496;8.154;2024-02-26T11:33:11;3.73;;;3.43;;
26594;SDS011;14238;49.496;8.154;2024-02-26T11:35:38;2.70;;;2.60;;
26594;SDS011;14238;49.496;8.154;2024-02-26T11:38:04;3.20;;;3.00;;
26594;SDS011;14238;49.496;8.154;2024-02-26T11:40:31;2.80;;;2.70;;
26594;SDS011;14238;49.496;8.154;2024-02-26T11:42:57;4.20;;;3.50;;
26594;SDS011;14238;49.496;8.154;2024-02-26T11:48:10;2.70;;;2.50;;
26594;SDS011;14238;49.496;8.154;2024-02-26T11:50:41;2.93;;;2.73;;
26594;SDS011;14238;49.496;8.154;2024-02-26T11:53:20;2.77;;;2.57;;
26594;SDS011;14238;49.496;8.154;2024-02-26T11:55:46;3.00;;;2.80;;
26594;SDS011;14238;49.496;8.154;2024-02-26T11:58:13;2.67;;;2.47;;
26594;SDS011;14238;49.496;8.154;2024-02-26T12:00:40;3.60;;;3.30;;
26594;SDS011;14238;49.496;8.154;2024-02-26T12:03:06;2.93;;;2.73;;
26594;SDS011;14238;49.496;8.154;2024-02-26T12:05:33;2.80;;;2.50;;
26594;SDS011;14238;49.496;8.154;2024-02-26T12:08:02;3.83;;;3.43;;
26594;SDS011;14238;49.496;8.154;2024-02-26T12:10:32;3.10;;;3.00;;
26594;SDS011;14238;49.496;8.154;2024-02-26T12:13:02;3.30;;;3.00;;
26594;SDS011;14238;49.496;8.154;2024-02-26T12:15:32;3.37;;;3.10;;
26594;SDS011;14238;49.496;8.154;2024-02-26T12:18:00;3.20;;;3.00;;
26594;SDS011;14238;49.496;8.154;2024-02-26T12:20:26;3.20;;;3.00;;
26594;SDS011;14238;49.496;8.154;2024-02-26T12:22:52;3.97;;;3.67;;
26594;SDS011;14238;49.496;8.154;2024-02-26T12:25:24;3.93;;;3.70;;
26594;SDS011;14238;49.496;8.154;2024-02-26T12:27:51;4.87;;;4.47;;
26594;SDS011;14238;49.496;8.154;2024-02-26T12:30:17;3.73;;;3.47;;
26594;SDS011;14238;49.496;8.154;2024-02-26T12:32:44;3.33;;;3.10;;
26594;SDS011;14238;49.496;8.154;2024-02-26T12:35:10;2.67;;;2.53;;
26594;SDS011;14238;49.496;8.154;2024-02-26T12:37:36;2.83;;;2.63;;
26594;SDS011;14238;49.496;8.154;2024-02-26T12:40:05;2.47;;;2.37;;
26594;SDS011;14238;49.496;8.154;2024-02-26T12:42:32;2.70;;;2.60;;
26594;SDS011;14238;49.496;8.154;2024-02-26T12:45:04;3.03;;;2.83;;
26594;SDS011;14238;49.496;8.154;2024-02-26T12:47:34;2.90;;;2.70;;
26594;SDS011;14238;49.496;8.154;2024-02-26T12:50:00;2.50;;;2.40;;
26594;SDS011;14238;49.496;8.154;2024-02-26T12:52:26;2.50;;;2.40;;
26594;SDS011;14238;49.496;8.154;2024-02-26T12:54:54;3.33;;;3.03;;
26594;SDS011;14238;49.496;8.154;2024-02-26T12:57:19;3.60;;;3.40;;
26594;SDS011;14238;49.496;8.154;2024-02-26T12:59:46;4.30;;;3.90;;
26594;SDS011;14238;49.496;8.154;2024-02-26T13:02:12;4.23;;;3.93;;
26594;SDS011;14238;49.496;8.154;2024-02-26T13:04:38;3.97;;;3.67;;
26594;SDS011;14238;49.496;8.154;2024-02-26T13:07:04;4.20;;;3.90;;
26594;SDS011;14238;49.496;8.154;2024-02-26T13:09:33;3.10;;;2.90;;
26594;SDS011;14238;49.496;8.154;2024-02-26T13:12:03;2.93;;;2.83;;
26594;SDS011;14238;49.496;8.154;2024-02-26T13:14:29;3.23;;;3.03;;
26594;SDS011;14238;49.496;8.154;2024-02-26T13:17:00;3.17;;;2.97;;
26594;SDS011;14238;49.496;8.154;2024-02-26T13:19:26;4.37;;;3.07;;
26594;SDS011;14238;49.496;8.154;2024-02-26T13:21:55;2.60;;;2.50;;
26594;SDS011;14238;49.496;8.154;2024-02-26T13:24:21;4.13;;;3.80;;
26594;SDS011;14238;49.496;8.154;2024-02-26T13:26:56;3.10;;;2.90;;
26594;SDS011;14238;49.496;8.154;2024-02-26T13:29:22;3.07;;;2.97;;
26594;SDS011;14238;49.496;8.154;2024-02-26T13:31:53;2.50;;;2.40;;
26594;SDS011;14238;49.496;8.154;2024-02-26T13:34:26;3.40;;;3.10;;
26594;SDS011;14238;49.496;8.154;2024-02-26T13:36:52;3.27;;;3.07;;
26594;SDS011;14238;49.496;8.154;2024-02-26T13:39:22;5.13;;;4.83;;
26594;SDS011;14238;49.496;8.154;2024-02-26T13:41:49;4.50;;;4.20;;
26594;SDS011;14238;49.496;8.154;2024-02-26T13:44:15;4.40;;;4.10;;
26594;SDS011;14238;49.496;8.154;2024-02-26T13:46:41;4.60;;;4.30;;
26594;SDS011;14238;49.496;8.154;2024-02-26T13:49:08;4.27;;;3.97;;
26594;SDS011;14238;49.496;8.154;2024-02-26T13:51:35;3.33;;;3.13;;
26594;SDS011;14238;49.496;8.154;2024-02-26T13:54:02;3.60;;;3.40;;
26594;SDS011;14238;49.496;8.154;2024-02-26T13:56:28;4.57;;;4.23;;
26594;SDS011;14238;49.496;8.154;2024-02-26T13:58:54;5.73;;;5.23;;
26594;SDS011;14238;49.496;8.154;2024-02-26T14:01:19;5.80;;;5.30;;
26594;SDS011;14238;49.496;8.154;2024-02-26T14:03:45;5.93;;;5.53;;
26594;SDS011;14238;49.496;8.154;2024-02-26T14:06:11;5.70;;;5.30;;
26594;SDS011;14238;49.496;8.154;2024-02-26T14:08:37;5.53;;;5.13;;
26594;SDS011;14238;49.496;8.154;2024-02-26T14:11:03;5.80;;;5.40;;
26594;SDS011;14238;49.496;8.154;2024-02-26T14:13:29;5.80;;;5.40;;
26594;SDS011;14238;49.496;8.154;2024-02-26T14:15:56;7.30;;;6.67;;
26594;SDS011;14238;49.496;8.154;2024-02-26T14:18:22;6.20;;;5.80;;
26594;SDS011;14238;49.496;8.154;2024-02-26T14:20:48;6.50;;;6.00;;
26594;SDS011;14238;49.496;8.154;2024-02-26T14:23:14;6.73;;;6.23;;
26594;SDS011;14238;49.496;8.154;2024-02-26T14:25:40;7.70;;;7.00;;
26594;SDS011;14238;49.496;8.154;2024-02-26T14:28:06;7.20;;;6.60;;
26594;SDS011;14238;49.496;8.154;2024-02-26T14:30:32;7.77;;;7.17;;
26594;SDS011;14238;49.496;8.154;2024-02-26T14:32:58;7.20;;;6.50;;
26594;SDS011;14238;49.496;8.154;2024-02-26T14:35:24;6.17;;;5.57;;
26594;SDS011;14238;49.496;8.154;2024-02-26T14:37:51;5.90;;;5.40;;
26594;SDS011;14238;49.496;8.154;2024-02-26T14:40:17;7.00;;;5.50;;
26594;SDS011;14238;49.496;8.154;2024-02-26T14:42:44;5.20;;;4.70;;
26594;SDS011;14238;49.496;8.154;2024-02-26T14:45:10;5.63;;;5.10;;